sensor_id;sensor_type;location;lat;lon;timestamp;P1;durP1;ratioP1;P2;durP2;ratioP2
19396;SDS011;9834;48.076;11.878;2022-07-06T00:00:17;3.80;;;3.50;;
19396;SDS011;9834;48.076;11.878;2022-07-06T00:02:44;4.47;;;3.67;;
19396;SDS011;9834;48.076;11.878;2022-07-06T00:05:11;6.77;;;4.30;;
19396;SDS011;9834;48.076;11.878;2022-07-06T00:07:39;6.00;;;4.10;;
19396;SDS011;9834;48.076;11.878;2022-07-06T00:10:06;4.37;;;3.97;;
19396;SDS011;9834;48.076;11.878;2022-07-06T00:12:33;4.10;;;3.50;;
19396;SDS011;9834;48.076;11.878;2022-07-06T00:15:00;3.93;;;3.17;;
19396;SDS011;9834;48.076;11.878;2022-07-06T00:17:28;5.60;;;3.13;;
19396;SDS011;9834;48.076;11.878;2022-07-06T00:19:55;3.47;;;2.67;;
19396;SDS011;9834;48.076;11.878;2022-07-06T00:22:21;4.40;;;3.33;;
19396;SDS011;9834;48.076;11.878;2022-07-06T00:24:50;4.57;;;2.90;;
19396;SDS011;9834;48.076;11.878;2022-07-06T00:27:17;4.03;;;3.63;;
19396;SDS011;9834;48.076;11.878;2022-07-06T00:29:44;3.60;;;2.90;;
19396;SDS011;9834;48.076;11.878;2022-07-06T00:32:11;6.00;;;3.50;;
19396;SDS011;9834;48.076;11.878;2022-07-06T00:34:38;4.23;;;2.73;;
19396;SDS011;9834;48.076;11.878;2022-07-06T00:37:05;3.60;;;3.10;;
19396;SDS011;9834;48.076;11.878;2022-07-06T00:39:33;3.87;;;3.30;;
19396;SDS011;9834;48.076;11.878;2022-07-06T00:42:01;3.73;;;3.10;;
19396;SDS011;9834;48.076;11.878;2022-07-06T00:44:29;3.13;;;2.83;;
19396;SDS011;9834;48.076;11.878;2022-07-06T00:46:57;4.20;;;3.57;;
19396;SDS011;9834;48.076;11.878;2022-07-06T00:49:24;3.67;;;3.33;;
19396;SDS011;9834;48.076;11.878;2022-07-06T00:52:09;4.93;;;3.30;;
19396;SDS011;9834;48.076;11.878;2022-07-06T00:54:37;5.53;;;3.33;;
19396;SDS011;9834;48.076;11.878;2022-07-06T00:57:08;4.77;;;3.13;;
19396;SDS011;9834;48.076;11.878;2022-07-06T00:59:36;6.37;;;3.80;;
19396;SDS011;9834;48.076;11.878;2022-07-06T01:02:03;4.30;;;3.90;;
19396;SDS011;9834;48.076;11.878;2022-07-06T01:04:30;4.30;;;3.20;;
19396;SDS011;9834;48.076;11.878;2022-07-06T01:06:58;3.60;;;3.30;;
19396;SDS011;9834;48.076;11.878;2022-07-06T01:09:26;4.17;;;3.60;;
19396;SDS011;9834;48.076;11.878;2022-07-06T01:11:53;4.20;;;3.80;;
19396;SDS011;9834;48.076;11.878;2022-07-06T01:14:22;3.87;;;3.40;;
19396;SDS011;9834;48.076;11.878;2022-07-06T01:16:49;4.53;;;3.43;;
19396;SDS011;9834;48.076;11.878;2022-07-06T01:19:16;4.47;;;3.43;;
19396;SDS011;9834;48.076;11.878;2022-07-06T01:21:44;4.10;;;3.70;;
19396;SDS011;9834;48.076;11.878;2022-07-06T01:24:11;4.20;;;3.80;;
19396;SDS011;9834;48.076;11.878;2022-07-06T01:26:38;3.77;;;3.47;;
19396;SDS011;9834;48.076;11.878;2022-07-06T01:29:05;4.37;;;3.33;;
19396;SDS011;9834;48.076;11.878;2022-07-06T01:31:32;4.27;;;3.40;;
19396;SDS011;9834;48.076;11.878;2022-07-06T01:33:59;3.80;;;3.50;;
19396;SDS011;9834;48.076;11.878;2022-07-06T01:36:26;4.20;;;3.90;;
19396;SDS011;9834;48.076;11.878;2022-07-06T01:38:55;4.23;;;3.63;;
19396;SDS011;9834;48.076;11.878;2022-07-06T01:41:23;3.80;;;3.43;;
19396;SDS011;9834;48.076;11.878;2022-07-06T01:43:50;3.57;;;3.30;;
19396;SDS011;9834;48.076;11.878;2022-07-06T01:46:17;4.07;;;3.67;;
19396;SDS011;9834;48.076;11.878;2022-07-06T01:48:45;4.73;;;3.90;;
19396;SDS011;9834;48.076;11.878;2022-07-06T01:51:13;4.23;;;3.70;;
19396;SDS011;9834;48.076;11.878;2022-07-06T01:53:40;3.70;;;3.40;;
19396;SDS011;9834;48.076;11.878;2022-07-06T01:56:09;4.17;;;3.77;;
19396;SDS011;9834;48.076;11.878;2022-07-06T01:58:36;3.80;;;3.50;;
19396;SDS011;9834;48.076;11.878;2022-07-06T02:01:06;3.87;;;3.47;;
19396;SDS011;9834;48.076;11.878;2022-07-06T02:03:34;4.43;;;3.37;;
19396;SDS011;9834;48.076;11.878;2022-07-06T02:06:01;3.47;;;3.17;;
19396;SDS011;9834;48.076;11.878;2022-07-06T02:08:29;3.83;;;3.43;;
19396;SDS011;9834;48.076;11.878;2022-07-06T02:10:56;3.10;;;2.90;;
19396;SDS011;9834;48.076;11.878;2022-07-06T02:13:24;5.33;;;3.43;;
19396;SDS011;9834;48.076;11.878;2022-07-06T02:15:52;3.60;;;3.30;;
19396;SDS011;9834;48.076;11.878;2022-07-06T02:18:19;3.60;;;2.80;;
19396;SDS011;9834;48.076;11.878;2022-07-06T02:20:46;3.43;;;3.13;;
19396;SDS011;9834;48.076;11.878;2022-07-06T02:23:13;4.80;;;3.10;;
19396;SDS011;9834;48.076;11.878;2022-07-06T02:25:40;4.20;;;2.50;;
19396;SDS011;9834;48.076;11.878;2022-07-06T02:28:07;2.90;;;2.60;;
19396;SDS011;9834;48.076;11.878;2022-07-06T02:30:35;5.13;;;2.83;;
19396;SDS011;9834;48.076;11.878;2022-07-06T02:33:02;3.37;;;3.10;;
19396;SDS011;9834;48.076;11.878;2022-07-06T02:35:29;4.17;;;3.77;;
19396;SDS011;9834;48.076;11.878;2022-07-06T02:37:56;4.57;;;2.80;;
19396;SDS011;9834;48.076;11.878;2022-07-06T02:40:23;2.60;;;2.40;;
19396;SDS011;9834;48.076;11.878;2022-07-06T02:42:50;2.93;;;2.63;;
19396;SDS011;9834;48.076;11.878;2022-07-06T02:45:17;3.10;;;2.33;;
19396;SDS011;9834;48.076;11.878;2022-07-06T02:47:45;2.63;;;2.23;;
19396;SDS011;9834;48.076;11.878;2022-07-06T02:50:12;3.50;;;2.57;;
19396;SDS011;9834;48.076;11.878;2022-07-06T02:52:39;4.63;;;2.63;;
19396;SDS011;9834;48.076;11.878;2022-07-06T02:55:07;3.50;;;2.57;;
19396;SDS011;9834;48.076;11.878;2022-07-06T02:57:34;4.70;;;2.23;;
19396;SDS011;9834;48.076;11.878;2022-07-06T03:00:01;2.97;;;2.47;;
19396;SDS011;9834;48.076;11.878;2022-07-06T03:05:02;2.27;;;2.07;;
19396;SDS011;9834;48.076;11.878;2022-07-06T03:07:29;3.60;;;2.67;;
19396;SDS011;9834;48.076;11.878;2022-07-06T03:09:56;2.83;;;2.20;;
19396;SDS011;9834;48.076;11.878;2022-07-06T03:12:23;3.10;;;2.60;;
19396;SDS011;9834;48.076;11.878;2022-07-06T03:14:50;3.10;;;2.80;;
19396;SDS011;9834;48.076;11.878;2022-07-06T03:17:17;3.87;;;2.37;;
19396;SDS011;9834;48.076;11.878;2022-07-06T03:19:44;2.80;;;2.60;;
19396;SDS011;9834;48.076;11.878;2022-07-06T03:22:12;4.30;;;2.77;;
19396;SDS011;9834;48.076;11.878;2022-07-06T03:24:39;4.37;;;2.70;;
19396;SDS011;9834;48.076;11.878;2022-07-06T03:27:06;2.90;;;2.70;;
19396;SDS011;9834;48.076;11.878;2022-07-06T03:29:33;3.10;;;2.90;;
19396;SDS011;9834;48.076;11.878;2022-07-06T03:32:00;5.73;;;2.83;;
19396;SDS011;9834;48.076;11.878;2022-07-06T03:34:27;3.23;;;2.93;;
19396;SDS011;9834;48.076;11.878;2022-07-06T03:36:54;2.50;;;2.30;;
19396;SDS011;9834;48.076;11.878;2022-07-06T03:39:23;4.13;;;3.07;;
19396;SDS011;9834;48.076;11.878;2022-07-06T03:41:50;4.13;;;2.90;;
19396;SDS011;9834;48.076;11.878;2022-07-06T03:44:17;3.80;;;3.00;;
19396;SDS011;9834;48.076;11.878;2022-07-06T03:46:44;3.37;;;2.90;;
19396;SDS011;9834;48.076;11.878;2022-07-06T03:49:11;3.73;;;2.40;;
19396;SDS011;9834;48.076;11.878;2022-07-06T03:51:38;2.50;;;2.30;;
19396;SDS011;9834;48.076;11.878;2022-07-06T03:54:05;3.50;;;2.47;;
19396;SDS011;9834;48.076;11.878;2022-07-06T03:56:33;3.10;;;2.20;;
19396;SDS011;9834;48.076;11.878;2022-07-06T03:59:03;2.80;;;2.60;;
19396;SDS011;9834;48.076;11.878;2022-07-06T04:01:30;4.17;;;2.50;;
19396;SDS011;9834;48.076;11.878;2022-07-06T04:03:57;13.77;;;3.60;;
19396;SDS011;9834;48.076;11.878;2022-07-06T04:06:24;3.30;;;2.30;;
19396;SDS011;9834;48.076;11.878;2022-07-06T04:08:51;2.63;;;2.40;;
19396;SDS011;9834;48.076;11.878;2022-07-06T04:11:18;4.30;;;2.80;;
19396;SDS011;9834;48.076;11.878;2022-07-06T04:13:47;2.87;;;2.60;;
19396;SDS011;9834;48.076;11.878;2022-07-06T04:16:14;3.23;;;2.37;;
19396;SDS011;9834;48.076;11.878;2022-07-06T04:18:41;3.83;;;2.37;;
19396;SDS011;9834;48.076;11.878;2022-07-06T04:21:07;2.93;;;2.30;;
19396;SDS011;9834;48.076;11.878;2022-07-06T04:23:34;2.50;;;2.30;;
19396;SDS011;9834;48.076;11.878;2022-07-06T04:26:01;2.67;;;2.10;;
19396;SDS011;9834;48.076;11.878;2022-07-06T04:28:29;4.53;;;2.57;;
19396;SDS011;9834;48.076;11.878;2022-07-06T04:30:57;2.97;;;2.67;;
19396;SDS011;9834;48.076;11.878;2022-07-06T04:33:24;2.80;;;2.20;;
19396;SDS011;9834;48.076;11.878;2022-07-06T04:35:51;2.70;;;2.27;;
19396;SDS011;9834;48.076;11.878;2022-07-06T04:38:18;2.60;;;2.40;;
19396;SDS011;9834;48.076;11.878;2022-07-06T04:40:45;2.30;;;2.10;;
19396;SDS011;9834;48.076;11.878;2022-07-06T04:43:13;1.80;;;1.70;;
19396;SDS011;9834;48.076;11.878;2022-07-06T04:45:40;2.70;;;1.97;;
19396;SDS011;9834;48.076;11.878;2022-07-06T04:48:08;2.13;;;1.80;;
19396;SDS011;9834;48.076;11.878;2022-07-06T04:50:35;2.83;;;2.13;;
19396;SDS011;9834;48.076;11.878;2022-07-06T04:53:02;3.20;;;2.30;;
19396;SDS011;9834;48.076;11.878;2022-07-06T04:55:29;3.27;;;2.03;;
19396;SDS011;9834;48.076;11.878;2022-07-06T04:57:56;2.67;;;1.93;;
19396;SDS011;9834;48.076;11.878;2022-07-06T05:00:23;1.83;;;1.73;;
19396;SDS011;9834;48.076;11.878;2022-07-06T05:02:50;1.63;;;1.53;;
19396;SDS011;9834;48.076;11.878;2022-07-06T05:05:19;4.00;;;1.90;;
19396;SDS011;9834;48.076;11.878;2022-07-06T05:07:46;2.83;;;1.77;;
19396;SDS011;9834;48.076;11.878;2022-07-06T05:10:13;1.80;;;1.70;;
19396;SDS011;9834;48.076;11.878;2022-07-06T05:12:40;3.43;;;1.90;;
19396;SDS011;9834;48.076;11.878;2022-07-06T05:15:08;1.67;;;1.57;;
19396;SDS011;9834;48.076;11.878;2022-07-06T05:17:35;2.00;;;1.60;;
19396;SDS011;9834;48.076;11.878;2022-07-06T05:20:03;2.73;;;1.67;;
19396;SDS011;9834;48.076;11.878;2022-07-06T05:22:33;1.57;;;1.47;;
19396;SDS011;9834;48.076;11.878;2022-07-06T05:25:01;2.87;;;1.47;;
19396;SDS011;9834;48.076;11.878;2022-07-06T05:27:29;1.93;;;1.60;;
19396;SDS011;9834;48.076;11.878;2022-07-06T05:29:55;1.70;;;1.60;;
19396;SDS011;9834;48.076;11.878;2022-07-06T05:32:23;2.87;;;1.80;;
19396;SDS011;9834;48.076;11.878;2022-07-06T05:34:50;1.90;;;1.50;;
19396;SDS011;9834;48.076;11.878;2022-07-06T05:37:17;1.63;;;1.30;;
19396;SDS011;9834;48.076;11.878;2022-07-06T05:39:45;3.00;;;1.40;;
19396;SDS011;9834;48.076;11.878;2022-07-06T05:42:14;1.43;;;1.33;;
19396;SDS011;9834;48.076;11.878;2022-07-06T05:44:41;3.07;;;1.20;;
19396;SDS011;9834;48.076;11.878;2022-07-06T05:47:08;1.40;;;1.30;;
19396;SDS011;9834;48.076;11.878;2022-07-06T05:49:52;1.50;;;1.40;;
19396;SDS011;9834;48.076;11.878;2022-07-06T05:52:37;2.10;;;1.60;;
19396;SDS011;9834;48.076;11.878;2022-07-06T05:55:06;2.03;;;1.40;;
19396;SDS011;9834;48.076;11.878;2022-07-06T05:57:34;1.83;;;1.57;;
19396;SDS011;9834;48.076;11.878;2022-07-06T06:00:01;2.73;;;1.60;;
19396;SDS011;9834;48.076;11.878;2022-07-06T06:02:35;1.53;;;1.40;;
19396;SDS011;9834;48.076;11.878;2022-07-06T06:05:04;2.97;;;1.50;;
19396;SDS011;9834;48.076;11.878;2022-07-06T06:07:32;1.70;;;1.50;;
19396;SDS011;9834;48.076;11.878;2022-07-06T06:10:01;1.87;;;1.60;;
19396;SDS011;9834;48.076;11.878;2022-07-06T06:12:31;2.33;;;1.90;;
19396;SDS011;9834;48.076;11.878;2022-07-06T06:14:58;1.63;;;1.40;;
19396;SDS011;9834;48.076;11.878;2022-07-06T06:17:25;2.57;;;1.40;;
19396;SDS011;9834;48.076;11.878;2022-07-06T06:19:53;1.57;;;1.47;;
19396;SDS011;9834;48.076;11.878;2022-07-06T06:22:20;4.40;;;1.83;;
19396;SDS011;9834;48.076;11.878;2022-07-06T06:24:47;1.90;;;1.50;;
19396;SDS011;9834;48.076;11.878;2022-07-06T06:27:14;2.27;;;1.40;;
19396;SDS011;9834;48.076;11.878;2022-07-06T06:29:42;1.53;;;1.43;;
19396;SDS011;9834;48.076;11.878;2022-07-06T06:32:09;1.97;;;1.70;;
19396;SDS011;9834;48.076;11.878;2022-07-06T06:34:37;2.57;;;1.63;;
19396;SDS011;9834;48.076;11.878;2022-07-06T06:37:04;2.50;;;1.73;;
19396;SDS011;9834;48.076;11.878;2022-07-06T06:39:31;3.70;;;1.53;;
19396;SDS011;9834;48.076;11.878;2022-07-06T06:41:58;3.47;;;1.60;;
19396;SDS011;9834;48.076;11.878;2022-07-06T06:44:25;1.80;;;1.70;;
19396;SDS011;9834;48.076;11.878;2022-07-06T06:46:53;1.70;;;1.60;;
19396;SDS011;9834;48.076;11.878;2022-07-06T06:49:20;1.60;;;1.50;;
19396;SDS011;9834;48.076;11.878;2022-07-06T06:51:47;4.70;;;1.80;;
19396;SDS011;9834;48.076;11.878;2022-07-06T06:54:14;3.10;;;1.67;;
19396;SDS011;9834;48.076;11.878;2022-07-06T06:56:41;3.20;;;1.50;;
19396;SDS011;9834;48.076;11.878;2022-07-06T06:59:08;3.20;;;1.67;;
19396;SDS011;9834;48.076;11.878;2022-07-06T07:01:35;2.40;;;1.60;;
19396;SDS011;9834;48.076;11.878;2022-07-06T07:04:04;3.93;;;1.37;;
19396;SDS011;9834;48.076;11.878;2022-07-06T07:06:31;1.60;;;1.50;;
19396;SDS011;9834;48.076;11.878;2022-07-06T07:08:58;2.87;;;1.50;;
19396;SDS011;9834;48.076;11.878;2022-07-06T07:11:25;2.90;;;1.40;;
19396;SDS011;9834;48.076;11.878;2022-07-06T07:13:52;2.80;;;1.70;;
19396;SDS011;9834;48.076;11.878;2022-07-06T07:16:21;1.73;;;1.50;;
19396;SDS011;9834;48.076;11.878;2022-07-06T07:18:49;3.60;;;1.67;;
19396;SDS011;9834;48.076;11.878;2022-07-06T07:21:18;1.63;;;1.20;;
19396;SDS011;9834;48.076;11.878;2022-07-06T07:23:47;2.27;;;1.70;;
19396;SDS011;9834;48.076;11.878;2022-07-06T07:26:15;2.30;;;1.60;;
19396;SDS011;9834;48.076;11.878;2022-07-06T07:28:42;1.97;;;1.60;;
19396;SDS011;9834;48.076;11.878;2022-07-06T07:31:09;2.43;;;1.73;;
19396;SDS011;9834;48.076;11.878;2022-07-06T07:33:36;2.80;;;1.90;;
19396;SDS011;9834;48.076;11.878;2022-07-06T07:36:04;2.67;;;1.80;;
19396;SDS011;9834;48.076;11.878;2022-07-06T07:38:35;1.80;;;1.50;;
19396;SDS011;9834;48.076;11.878;2022-07-06T07:41:04;3.20;;;1.90;;
19396;SDS011;9834;48.076;11.878;2022-07-06T07:43:31;2.60;;;1.65;;
19396;SDS011;9834;48.076;11.878;2022-07-06T07:45:58;2.80;;;1.77;;
19396;SDS011;9834;48.076;11.878;2022-07-06T07:48:25;3.00;;;1.67;;
19396;SDS011;9834;48.076;11.878;2022-07-06T07:50:52;3.80;;;1.70;;
19396;SDS011;9834;48.076;11.878;2022-07-06T07:53:19;5.63;;;1.83;;
19396;SDS011;9834;48.076;11.878;2022-07-06T07:55:48;4.53;;;1.90;;
19396;SDS011;9834;48.076;11.878;2022-07-06T07:58:14;3.42;;;2.00;;
19396;SDS011;9834;48.076;11.878;2022-07-06T08:00:41;5.63;;;1.90;;
19396;SDS011;9834;48.076;11.878;2022-07-06T08:03:09;3.45;;;1.60;;
19396;SDS011;9834;48.076;11.878;2022-07-06T08:05:36;3.50;;;1.65;;
19396;SDS011;9834;48.076;11.878;2022-07-06T08:08:03;3.67;;;1.45;;
19396;SDS011;9834;48.076;11.878;2022-07-06T08:10:31;2.05;;;1.45;;
19396;SDS011;9834;48.076;11.878;2022-07-06T08:12:59;3.88;;;2.05;;
19396;SDS011;9834;48.076;11.878;2022-07-06T08:15:26;8.45;;;2.00;;
19396;SDS011;9834;48.076;11.878;2022-07-06T08:17:53;2.05;;;1.80;;
19396;SDS011;9834;48.076;11.878;2022-07-06T08:20:20;1.88;;;1.70;;
19396;SDS011;9834;48.076;11.878;2022-07-06T08:22:48;3.50;;;1.67;;
19396;SDS011;9834;48.076;11.878;2022-07-06T08:25:15;3.92;;;2.03;;
19396;SDS011;9834;48.076;11.878;2022-07-06T08:27:42;2.33;;;2.10;;
19396;SDS011;9834;48.076;11.878;2022-07-06T08:30:11;4.30;;;1.60;;
19396;SDS011;9834;48.076;11.878;2022-07-06T08:32:38;3.17;;;1.90;;
19396;SDS011;9834;48.076;11.878;2022-07-06T08:35:05;3.33;;;1.92;;
19396;SDS011;9834;48.076;11.878;2022-07-06T08:37:33;4.75;;;1.90;;
19396;SDS011;9834;48.076;11.878;2022-07-06T08:40:00;3.22;;;2.15;;
19396;SDS011;9834;48.076;11.878;2022-07-06T08:42:29;2.15;;;1.95;;
19396;SDS011;9834;48.076;11.878;2022-07-06T08:44:58;2.40;;;2.20;;
19396;SDS011;9834;48.076;11.878;2022-07-06T08:47:27;3.28;;;2.13;;
19396;SDS011;9834;48.076;11.878;2022-07-06T08:49:54;3.15;;;1.60;;
19396;SDS011;9834;48.076;11.878;2022-07-06T08:52:22;1.77;;;1.67;;
19396;SDS011;9834;48.076;11.878;2022-07-06T08:54:50;3.35;;;1.73;;
19396;SDS011;9834;48.076;11.878;2022-07-06T08:57:17;5.13;;;1.70;;
19396;SDS011;9834;48.076;11.878;2022-07-06T08:59:44;2.92;;;1.88;;
19396;SDS011;9834;48.076;11.878;2022-07-06T09:02:12;3.63;;;2.03;;
19396;SDS011;9834;48.076;11.878;2022-07-06T09:04:42;2.80;;;1.90;;
19396;SDS011;9834;48.076;11.878;2022-07-06T09:07:10;4.40;;;1.90;;
19396;SDS011;9834;48.076;11.878;2022-07-06T09:09:38;2.55;;;1.63;;
19396;SDS011;9834;48.076;11.878;2022-07-06T09:12:09;3.33;;;1.92;;
19396;SDS011;9834;48.076;11.878;2022-07-06T09:14:38;3.30;;;1.83;;
19396;SDS011;9834;48.076;11.878;2022-07-06T09:17:06;2.08;;;1.75;;
19396;SDS011;9834;48.076;11.878;2022-07-06T09:19:42;2.17;;;1.90;;
19396;SDS011;9834;48.076;11.878;2022-07-06T09:22:24;3.55;;;1.75;;
19396;SDS011;9834;48.076;11.878;2022-07-06T09:24:52;4.00;;;2.03;;
19396;SDS011;9834;48.076;11.878;2022-07-06T09:27:27;4.10;;;2.13;;
19396;SDS011;9834;48.076;11.878;2022-07-06T09:29:54;3.20;;;1.98;;
19396;SDS011;9834;48.076;11.878;2022-07-06T09:32:25;4.03;;;1.90;;
19396;SDS011;9834;48.076;11.878;2022-07-06T09:34:53;5.90;;;2.33;;
19396;SDS011;9834;48.076;11.878;2022-07-06T09:37:21;3.65;;;2.15;;
19396;SDS011;9834;48.076;11.878;2022-07-06T09:39:49;4.68;;;2.22;;
19396;SDS011;9834;48.076;11.878;2022-07-06T09:42:16;4.38;;;2.28;;
19396;SDS011;9834;48.076;11.878;2022-07-06T09:44:50;3.28;;;2.03;;
19396;SDS011;9834;48.076;11.878;2022-07-06T09:47:17;2.20;;;2.00;;
19396;SDS011;9834;48.076;11.878;2022-07-06T09:49:45;2.20;;;2.00;;
19396;SDS011;9834;48.076;11.878;2022-07-06T09:52:14;3.22;;;2.25;;
19396;SDS011;9834;48.076;11.878;2022-07-06T09:54:42;4.93;;;2.10;;
19396;SDS011;9834;48.076;11.878;2022-07-06T09:57:09;3.83;;;2.00;;
19396;SDS011;9834;48.076;11.878;2022-07-06T09:59:36;2.60;;;2.08;;
19396;SDS011;9834;48.076;11.878;2022-07-06T10:02:04;4.93;;;2.00;;
19396;SDS011;9834;48.076;11.878;2022-07-06T10:04:33;3.15;;;2.53;;
19396;SDS011;9834;48.076;11.878;2022-07-06T10:07:01;4.10;;;1.88;;
19396;SDS011;9834;48.076;11.878;2022-07-06T10:09:29;3.20;;;1.92;;
19396;SDS011;9834;48.076;11.878;2022-07-06T10:11:57;3.00;;;2.10;;
19396;SDS011;9834;48.076;11.878;2022-07-06T10:14:26;4.15;;;2.00;;
19396;SDS011;9834;48.076;11.878;2022-07-06T10:16:55;3.58;;;1.92;;
19396;SDS011;9834;48.076;11.878;2022-07-06T10:19:23;3.30;;;2.20;;
19396;SDS011;9834;48.076;11.878;2022-07-06T10:21:51;4.53;;;2.25;;
19396;SDS011;9834;48.076;11.878;2022-07-06T10:24:18;2.80;;;2.28;;
19396;SDS011;9834;48.076;11.878;2022-07-06T10:26:47;2.42;;;1.67;;
19396;SDS011;9834;48.076;11.878;2022-07-06T10:29:15;1.98;;;1.80;;
19396;SDS011;9834;48.076;11.878;2022-07-06T10:31:43;4.55;;;2.25;;
19396;SDS011;9834;48.076;11.878;2022-07-06T10:34:12;2.67;;;1.70;;
19396;SDS011;9834;48.076;11.878;2022-07-06T10:36:43;3.05;;;1.95;;
19396;SDS011;9834;48.076;11.878;2022-07-06T10:39:14;1.92;;;1.65;;
19396;SDS011;9834;48.076;11.878;2022-07-06T10:42:00;4.53;;;1.77;;
19396;SDS011;9834;48.076;11.878;2022-07-06T10:44:27;2.63;;;2.00;;
19396;SDS011;9834;48.076;11.878;2022-07-06T10:46:54;2.47;;;1.50;;
19396;SDS011;9834;48.076;11.878;2022-07-06T10:49:22;2.05;;;1.85;;
19396;SDS011;9834;48.076;11.878;2022-07-06T10:51:50;3.65;;;1.85;;
19396;SDS011;9834;48.076;11.878;2022-07-06T10:54:20;5.03;;;1.88;;
19396;SDS011;9834;48.076;11.878;2022-07-06T10:56:48;5.22;;;1.95;;
19396;SDS011;9834;48.076;11.878;2022-07-06T10:59:19;2.42;;;1.95;;
19396;SDS011;9834;48.076;11.878;2022-07-06T11:04:38;3.25;;;1.80;;
19396;SDS011;9834;48.076;11.878;2022-07-06T11:07:09;4.47;;;1.88;;
19396;SDS011;9834;48.076;11.878;2022-07-06T11:09:37;2.80;;;1.90;;
19396;SDS011;9834;48.076;11.878;2022-07-06T11:12:14;2.40;;;1.80;;
19396;SDS011;9834;48.076;11.878;2022-07-06T11:14:45;2.97;;;1.90;;
19396;SDS011;9834;48.076;11.878;2022-07-06T11:17:13;1.95;;;1.75;;
19396;SDS011;9834;48.076;11.878;2022-07-06T11:19:47;2.45;;;2.00;;
19396;SDS011;9834;48.076;11.878;2022-07-06T11:22:16;4.50;;;1.98;;
19396;SDS011;9834;48.076;11.878;2022-07-06T11:24:44;5.38;;;2.22;;
19396;SDS011;9834;48.076;11.878;2022-07-06T11:27:11;4.05;;;1.83;;
19396;SDS011;9834;48.076;11.878;2022-07-06T11:29:39;2.92;;;1.70;;
19396;SDS011;9834;48.076;11.878;2022-07-06T11:32:08;4.10;;;1.65;;
19396;SDS011;9834;48.076;11.878;2022-07-06T11:34:36;5.30;;;2.08;;
19396;SDS011;9834;48.076;11.878;2022-07-06T11:37:05;3.20;;;1.88;;
19396;SDS011;9834;48.076;11.878;2022-07-06T11:39:33;1.60;;;1.50;;
19396;SDS011;9834;48.076;11.878;2022-07-06T11:42:02;5.82;;;2.00;;
19396;SDS011;9834;48.076;11.878;2022-07-06T11:44:30;4.25;;;1.80;;
19396;SDS011;9834;48.076;11.878;2022-07-06T11:46:58;1.90;;;1.70;;
19396;SDS011;9834;48.076;11.878;2022-07-06T11:49:28;3.53;;;1.58;;
19396;SDS011;9834;48.076;11.878;2022-07-06T11:51:55;4.32;;;2.20;;
19396;SDS011;9834;48.076;11.878;2022-07-06T11:54:23;3.00;;;1.63;;
19396;SDS011;9834;48.076;11.878;2022-07-06T11:56:51;4.22;;;1.63;;
19396;SDS011;9834;48.076;11.878;2022-07-06T11:59:20;2.65;;;1.70;;
19396;SDS011;9834;48.076;11.878;2022-07-06T12:01:49;3.75;;;1.60;;
19396;SDS011;9834;48.076;11.878;2022-07-06T12:04:16;2.33;;;1.38;;
19396;SDS011;9834;48.076;11.878;2022-07-06T12:06:45;2.70;;;1.70;;
19396;SDS011;9834;48.076;11.878;2022-07-06T12:09:12;5.03;;;1.75;;
19396;SDS011;9834;48.076;11.878;2022-07-06T12:11:40;1.95;;;1.50;;
19396;SDS011;9834;48.076;11.878;2022-07-06T12:14:15;2.30;;;1.60;;
19396;SDS011;9834;48.076;11.878;2022-07-06T12:16:44;3.67;;;1.67;;
19396;SDS011;9834;48.076;11.878;2022-07-06T12:19:11;3.35;;;1.67;;
19396;SDS011;9834;48.076;11.878;2022-07-06T12:21:42;1.50;;;1.40;;
19396;SDS011;9834;48.076;11.878;2022-07-06T12:24:18;4.50;;;1.90;;
19396;SDS011;9834;48.076;11.878;2022-07-06T12:26:47;2.85;;;1.67;;
19396;SDS011;9834;48.076;11.878;2022-07-06T12:29:14;2.42;;;1.77;;
19396;SDS011;9834;48.076;11.878;2022-07-06T12:31:43;4.20;;;1.70;;
19396;SDS011;9834;48.076;11.878;2022-07-06T12:34:14;2.65;;;1.98;;
19396;SDS011;9834;48.076;11.878;2022-07-06T12:36:42;1.67;;;1.30;;
19396;SDS011;9834;48.076;11.878;2022-07-06T12:39:12;4.03;;;1.75;;
19396;SDS011;9834;48.076;11.878;2022-07-06T12:41:43;2.85;;;1.70;;
19396;SDS011;9834;48.076;11.878;2022-07-06T12:44:12;4.40;;;2.00;;
19396;SDS011;9834;48.076;11.878;2022-07-06T12:46:40;3.28;;;1.58;;
19396;SDS011;9834;48.076;11.878;2022-07-06T12:49:12;4.88;;;1.50;;
19396;SDS011;9834;48.076;11.878;2022-07-06T12:51:53;2.25;;;1.83;;
19396;SDS011;9834;48.076;11.878;2022-07-06T12:54:27;2.83;;;1.65;;
19396;SDS011;9834;48.076;11.878;2022-07-06T12:56:59;2.15;;;1.30;;
19396;SDS011;9834;48.076;11.878;2022-07-06T12:59:29;3.38;;;1.48;;
19396;SDS011;9834;48.076;11.878;2022-07-06T13:01:57;1.70;;;1.60;;
19396;SDS011;9834;48.076;11.878;2022-07-06T13:04:25;2.45;;;1.40;;
19396;SDS011;9834;48.076;11.878;2022-07-06T13:06:54;2.13;;;1.52;;
19396;SDS011;9834;48.076;11.878;2022-07-06T13:09:21;2.83;;;1.65;;
19396;SDS011;9834;48.076;11.878;2022-07-06T13:11:49;2.45;;;1.70;;
19396;SDS011;9834;48.076;11.878;2022-07-06T13:14:17;2.85;;;1.40;;
19396;SDS011;9834;48.076;11.878;2022-07-06T13:16:45;4.13;;;1.50;;
19396;SDS011;9834;48.076;11.878;2022-07-06T13:19:13;1.55;;;1.25;;
19396;SDS011;9834;48.076;11.878;2022-07-06T13:21:40;1.55;;;1.20;;
19396;SDS011;9834;48.076;11.878;2022-07-06T13:24:07;1.98;;;1.30;;
19396;SDS011;9834;48.076;11.878;2022-07-06T13:26:34;1.95;;;1.48;;
19396;SDS011;9834;48.076;11.878;2022-07-06T13:29:03;3.20;;;1.42;;
19396;SDS011;9834;48.076;11.878;2022-07-06T13:31:30;2.35;;;1.63;;
19396;SDS011;9834;48.076;11.878;2022-07-06T13:33:57;1.77;;;1.45;;
19396;SDS011;9834;48.076;11.878;2022-07-06T13:36:24;2.72;;;1.33;;
19396;SDS011;9834;48.076;11.878;2022-07-06T13:38:51;2.47;;;1.35;;
19396;SDS011;9834;48.076;11.878;2022-07-06T13:41:18;1.92;;;1.70;;
19396;SDS011;9834;48.076;11.878;2022-07-06T13:43:45;1.60;;;1.42;;
19396;SDS011;9834;48.076;11.878;2022-07-06T13:46:13;2.17;;;1.42;;
19396;SDS011;9834;48.076;11.878;2022-07-06T13:48:42;1.70;;;1.50;;
19396;SDS011;9834;48.076;11.878;2022-07-06T13:51:09;3.05;;;1.20;;
19396;SDS011;9834;48.076;11.878;2022-07-06T13:53:36;3.10;;;1.48;;
19396;SDS011;9834;48.076;11.878;2022-07-06T13:56:03;1.55;;;1.40;;
19396;SDS011;9834;48.076;11.878;2022-07-06T13:58:33;2.35;;;1.50;;
19396;SDS011;9834;48.076;11.878;2022-07-06T14:01:00;4.65;;;2.30;;
19396;SDS011;9834;48.076;11.878;2022-07-06T14:03:28;3.95;;;1.30;;
19396;SDS011;9834;48.076;11.878;2022-07-06T14:06:04;1.40;;;1.30;;
19396;SDS011;9834;48.076;11.878;2022-07-06T14:08:33;2.05;;;1.67;;
19396;SDS011;9834;48.076;11.878;2022-07-06T14:11:01;3.03;;;1.50;;
19396;SDS011;9834;48.076;11.878;2022-07-06T14:13:28;1.90;;;1.30;;
19396;SDS011;9834;48.076;11.878;2022-07-06T14:15:55;2.20;;;1.65;;
19396;SDS011;9834;48.076;11.878;2022-07-06T14:18:22;1.67;;;1.50;;
19396;SDS011;9834;48.076;11.878;2022-07-06T14:20:51;1.98;;;1.77;;
19396;SDS011;9834;48.076;11.878;2022-07-06T14:23:19;6.28;;;1.30;;
19396;SDS011;9834;48.076;11.878;2022-07-06T14:25:47;2.70;;;1.50;;
19396;SDS011;9834;48.076;11.878;2022-07-06T14:28:14;1.33;;;1.23;;
19396;SDS011;9834;48.076;11.878;2022-07-06T14:30:42;1.92;;;1.63;;
19396;SDS011;9834;48.076;11.878;2022-07-06T14:33:11;2.13;;;1.20;;
19396;SDS011;9834;48.076;11.878;2022-07-06T14:35:39;3.15;;;1.27;;
19396;SDS011;9834;48.076;11.878;2022-07-06T14:38:10;5.07;;;1.38;;
19396;SDS011;9834;48.076;11.878;2022-07-06T14:40:37;1.42;;;1.30;;
19396;SDS011;9834;48.076;11.878;2022-07-06T14:43:04;5.30;;;1.23;;
19396;SDS011;9834;48.076;11.878;2022-07-06T14:45:31;1.55;;;1.20;;
19396;SDS011;9834;48.076;11.878;2022-07-06T14:47:58;7.63;;;1.55;;
19396;SDS011;9834;48.076;11.878;2022-07-06T14:50:25;2.92;;;1.30;;
19396;SDS011;9834;48.076;11.878;2022-07-06T14:52:53;3.78;;;1.35;;
19396;SDS011;9834;48.076;11.878;2022-07-06T14:55:22;10.52;;;3.35;;
19396;SDS011;9834;48.076;11.878;2022-07-06T14:57:49;2.17;;;1.25;;